createdAt,value
2022-12-04T00:01:09.292Z,11.45
2022-12-04T00:03:35.972Z,9.70
2022-12-04T00:06:14.215Z,12.40
2022-12-04T00:08:41.534Z,11.05
2022-12-04T00:11:09.919Z,11.10
2022-12-04T00:13:37.278Z,12.68
2022-12-04T00:16:06.043Z,11.68
2022-12-04T00:18:32.558Z,12.10
2022-12-04T00:20:59.026Z,11.80
2022-12-04T00:23:25.753Z,12.13
2022-12-04T00:25:53.362Z,12.40
2022-12-04T00:28:19.949Z,11.38
2022-12-04T00:30:46.461Z,11.43
2022-12-04T00:33:13.764Z,10.75
2022-12-04T00:35:40.847Z,12.15
2022-12-04T00:38:07.316Z,12.15
2022-12-04T00:40:33.887Z,11.57
2022-12-04T00:43:00.371Z,11.50
2022-12-04T00:45:26.875Z,12.77
2022-12-04T00:47:53.357Z,12.23
2022-12-04T00:50:19.872Z,12.55
2022-12-04T00:52:46.450Z,11.60
2022-12-04T00:55:13.227Z,12.82
2022-12-04T00:57:39.693Z,12.73
2022-12-04T01:00:07.303Z,12.38
2022-12-04T01:02:33.893Z,12.20
2022-12-04T01:05:01.713Z,13.10
2022-12-04T01:07:28.433Z,12.25
2022-12-04T01:09:55.002Z,11.75
2022-12-04T01:12:21.638Z,11.43
2022-12-04T01:14:48.105Z,13.15
2022-12-04T01:17:14.503Z,12.15
2022-12-04T01:19:40.936Z,12.52
2022-12-04T01:22:07.404Z,11.95
2022-12-04T01:24:33.875Z,12.23
2022-12-04T01:27:00.323Z,11.90
2022-12-04T01:29:27.006Z,11.95
2022-12-04T01:31:53.501Z,11.40
2022-12-04T01:34:19.937Z,11.10
2022-12-04T01:36:46.477Z,11.32
2022-12-04T01:39:12.928Z,11.00
2022-12-04T01:41:40.476Z,11.23
2022-12-04T01:44:15.178Z,11.80
2022-12-04T01:46:43.444Z,11.13
2022-12-04T01:49:14.583Z,12.75
2022-12-04T01:51:45.858Z,12.00
2022-12-04T01:54:18.625Z,12.88
2022-12-04T01:56:58.273Z,10.13
2022-12-04T01:59:31.934Z,13.40
2022-12-04T02:02:11.223Z,12.52
2022-12-04T02:04:39.914Z,12.43
2022-12-04T02:07:06.810Z,11.65
2022-12-04T02:09:34.761Z,11.77
2022-12-04T02:12:13.289Z,11.38
2022-12-04T02:14:49.928Z,11.70
2022-12-04T02:17:44.115Z,12.15
2022-12-04T02:20:44.648Z,12.52
2022-12-04T02:23:16.990Z,11.32
2022-12-04T02:26:09.792Z,11.43
2022-12-04T02:28:36.221Z,12.57
2022-12-04T02:31:07.113Z,11.60
2022-12-04T02:33:48.287Z,12.48
2022-12-04T02:36:21.294Z,10.90
2022-12-04T02:39:12.515Z,11.25
2022-12-04T02:41:54.590Z,11.32
2022-12-04T02:44:25.122Z,10.57
2022-12-04T02:46:58.131Z,11.48
2022-12-04T02:49:37.672Z,11.18
2022-12-04T02:52:08.598Z,11.02
2022-12-04T02:54:39.492Z,11.57
2022-12-04T02:57:09.718Z,11.85
2022-12-04T02:59:40.538Z,12.00
2022-12-04T03:02:21.976Z,11.82
2022-12-04T03:04:50.945Z,12.35
2022-12-04T03:07:30.637Z,11.60
2022-12-04T03:10:05.882Z,11.55
2022-12-04T03:12:41.741Z,11.52
2022-12-04T03:15:35.497Z,10.98
2022-12-04T03:18:14.535Z,12.18
2022-12-04T03:20:44.558Z,11.32
2022-12-04T03:23:22.763Z,12.15
2022-12-04T03:26:21.568Z,11.15
2022-12-04T03:29:06.610Z,11.68
2022-12-04T03:31:55.730Z,11.68
2022-12-04T03:34:39.723Z,12.57
2022-12-04T03:37:15.998Z,12.07
2022-12-04T03:39:42.375Z,13.27
2022-12-04T03:42:18.700Z,11.40
2022-12-04T03:45:04.246Z,11.75
2022-12-04T03:47:47.665Z,12.50
2022-12-04T03:50:30.169Z,11.77
2022-12-04T03:53:30.581Z,12.57
2022-12-04T03:56:19.113Z,12.50
2022-12-04T03:58:50.752Z,11.88
2022-12-04T04:01:23.079Z,11.75
2022-12-04T04:03:53.531Z,12.93
2022-12-04T04:06:28.725Z,12.30
2022-12-04T04:08:59.124Z,13.13
2022-12-04T04:11:34.027Z,12.65
2022-12-04T04:14:27.123Z,13.32
2022-12-04T04:17:26.690Z,12.75
2022-12-04T04:20:21.570Z,11.23
2022-12-04T04:23:09.617Z,11.38
2022-12-04T04:25:40.395Z,12.05
2022-12-04T04:28:34.232Z,12.50
2022-12-04T04:31:19.293Z,12.02
2022-12-04T04:33:59.319Z,11.48
2022-12-04T04:36:44.065Z,11.73
2022-12-04T04:39:22.571Z,12.32
2022-12-04T04:42:04.509Z,12.25
2022-12-04T04:44:39.320Z,12.50
2022-12-04T04:47:09.285Z,12.50
2022-12-04T04:49:38.579Z,12.43
2022-12-04T04:52:05.303Z,11.95
2022-12-04T04:54:33.845Z,12.93
2022-12-04T04:57:00.381Z,12.82
2022-12-04T04:59:27.066Z,12.02
2022-12-04T05:01:53.753Z,12.60
2022-12-04T05:04:20.262Z,12.82
2022-12-04T05:06:47.806Z,12.27
2022-12-04T05:09:14.476Z,12.43
2022-12-04T05:11:40.874Z,12.30
2022-12-04T05:14:09.259Z,13.27
2022-12-04T05:16:35.907Z,12.77
2022-12-04T05:19:20.851Z,12.88
2022-12-04T05:21:47.252Z,12.40
2022-12-04T05:24:13.681Z,12.48
2022-12-04T05:26:40.132Z,12.15
2022-12-04T05:29:06.786Z,13.63
2022-12-04T05:31:33.322Z,12.95
2022-12-04T05:33:59.787Z,11.95
2022-12-04T05:36:26.330Z,12.90
2022-12-04T05:38:52.839Z,11.48
2022-12-04T05:41:19.294Z,12.10
2022-12-04T05:43:45.793Z,11.82
2022-12-04T05:46:12.304Z,12.25
2022-12-04T05:48:38.813Z,12.77
2022-12-04T05:51:10.544Z,13.15
2022-12-04T05:53:37.463Z,10.63
2022-12-04T05:56:04.983Z,13.40
2022-12-04T05:58:35.145Z,11.88
2022-12-04T06:01:08.386Z,11.25
2022-12-04T06:03:34.974Z,12.60
2022-12-04T06:06:01.440Z,11.82
2022-12-04T06:08:27.838Z,12.10
2022-12-04T06:10:54.266Z,12.40
2022-12-04T06:13:20.706Z,11.50
2022-12-04T06:15:47.154Z,12.20
2022-12-04T06:18:13.555Z,12.68
2022-12-04T06:20:39.993Z,12.82
2022-12-04T06:23:06.520Z,12.20
2022-12-04T06:25:34.418Z,13.75
2022-12-04T06:28:00.843Z,12.60
2022-12-04T06:30:27.355Z,12.02
2022-12-04T06:32:53.774Z,12.38
2022-12-04T06:35:20.235Z,13.48
2022-12-04T06:37:46.687Z,12.00
2022-12-04T06:40:13.261Z,12.13
2022-12-04T06:42:39.732Z,12.55
2022-12-04T06:45:06.856Z,12.15
2022-12-04T06:47:34.995Z,12.30
2022-12-04T06:50:01.498Z,12.07
2022-12-04T06:52:27.911Z,12.90
2022-12-04T06:54:54.474Z,11.85
2022-12-04T06:57:20.867Z,11.63
2022-12-04T06:59:47.307Z,12.10
2022-12-04T07:02:13.809Z,12.20
2022-12-04T07:04:40.341Z,12.70
2022-12-04T07:07:09.901Z,11.20
2022-12-04T07:09:36.745Z,13.10
2022-12-04T07:12:03.222Z,12.25
2022-12-04T07:14:29.698Z,12.50
2022-12-04T07:16:56.198Z,13.68
2022-12-04T07:19:22.729Z,11.20
2022-12-04T07:21:49.142Z,12.65
2022-12-04T07:24:17.275Z,11.52
2022-12-04T07:26:44.378Z,12.57
2022-12-04T07:29:10.911Z,12.55
2022-12-04T07:31:37.893Z,12.75
2022-12-04T07:34:04.401Z,11.43
2022-12-04T07:36:30.794Z,12.13
2022-12-04T07:38:57.821Z,12.20
2022-12-04T07:41:25.165Z,11.45
2022-12-04T07:43:51.567Z,11.70
2022-12-04T07:46:22.418Z,12.55
2022-12-04T07:48:48.905Z,12.23
2022-12-04T07:51:27.515Z,11.98
2022-12-04T07:53:54.888Z,11.75
2022-12-04T07:56:22.009Z,11.48
2022-12-04T07:58:48.570Z,11.98
2022-12-04T08:01:23.132Z,12.07
2022-12-04T08:03:52.716Z,11.05
2022-12-04T08:06:22.130Z,11.73
2022-12-04T08:08:49.223Z,12.02
2022-12-04T08:11:18.683Z,11.82
2022-12-04T08:13:45.920Z,9.80
2022-12-04T08:16:14.018Z,11.00
2022-12-04T08:18:41.694Z,11.18
2022-12-04T08:21:13.881Z,10.15
2022-12-04T08:23:42.551Z,10.40
2022-12-04T08:26:10.232Z,10.80
2022-12-04T08:28:37.296Z,10.98
2022-12-04T08:31:04.724Z,10.75
2022-12-04T08:33:31.964Z,11.32
2022-12-04T08:36:00.243Z,11.35
2022-12-04T08:38:26.774Z,10.63
2022-12-04T08:40:53.225Z,10.85
2022-12-04T08:43:19.677Z,10.40
2022-12-04T08:45:55.218Z,11.23
2022-12-04T08:48:21.953Z,11.77
2022-12-04T08:50:48.400Z,10.98
2022-12-04T08:53:14.910Z,10.57
2022-12-04T08:55:41.406Z,11.63
2022-12-04T08:58:07.869Z,10.50
2022-12-04T09:00:34.380Z,10.65
2022-12-04T09:03:00.825Z,10.65
2022-12-04T09:05:27.256Z,10.95
2022-12-04T09:07:53.742Z,11.27
2022-12-04T09:10:20.264Z,12.38
2022-12-04T09:12:46.735Z,11.70
2022-12-04T09:15:13.205Z,11.25
2022-12-04T09:17:39.689Z,10.63
2022-12-04T09:20:08.116Z,11.27
2022-12-04T09:22:57.874Z,12.68
2022-12-04T09:25:22.329Z,12.13
2022-12-04T09:27:48.737Z,12.43
2022-12-04T09:30:15.213Z,12.40
2022-12-04T09:32:41.721Z,12.32
2022-12-04T09:35:08.581Z,13.13
2022-12-04T09:37:36.678Z,15.52
2022-12-04T09:40:07.950Z,15.05
2022-12-04T09:42:45.845Z,13.77
2022-12-04T09:45:15.940Z,15.30
2022-12-04T09:47:55.664Z,13.25
2022-12-04T09:50:42.723Z,13.05
2022-12-04T09:53:14.133Z,12.25
2022-12-04T09:55:43.899Z,12.30
2022-12-04T09:58:14.562Z,12.75
2022-12-04T10:00:44.180Z,13.07
2022-12-04T10:03:17.274Z,11.90
2022-12-04T10:06:10.023Z,14.00
2022-12-04T10:08:39.697Z,12.88
2022-12-04T10:11:46.072Z,11.95
2022-12-04T10:14:35.555Z,13.25
2022-12-04T10:17:23.998Z,13.35
2022-12-04T10:20:04.070Z,12.48
2022-12-04T10:22:40.116Z,12.75
2022-12-04T10:25:15.321Z,12.98
2022-12-04T10:28:20.738Z,13.15
2022-12-04T10:30:48.525Z,12.75
2022-12-04T10:33:21.239Z,12.75
2022-12-04T10:35:52.550Z,13.97
2022-12-04T10:38:43.927Z,12.65
2022-12-04T10:41:15.243Z,13.05
2022-12-04T10:43:44.166Z,12.95
2022-12-04T10:46:30.537Z,13.35
2022-12-04T10:49:03.404Z,14.05
2022-12-04T10:51:38.330Z,14.27
2022-12-04T10:54:21.962Z,14.27
2022-12-04T10:56:58.704Z,13.88
2022-12-04T10:59:25.988Z,14.10
2022-12-04T11:02:06.380Z,13.77
2022-12-04T11:04:34.318Z,15.48
2022-12-04T11:07:07.463Z,13.82
2022-12-04T11:09:34.397Z,13.00
2022-12-04T11:12:19.433Z,13.32
2022-12-04T11:14:47.430Z,13.20
2022-12-04T11:17:19.486Z,13.45
2022-12-04T11:19:45.963Z,14.02
2022-12-04T11:22:14.143Z,13.50
2022-12-04T11:24:42.786Z,13.90
2022-12-04T11:27:23.687Z,13.05
2022-12-04T11:29:51.037Z,13.63
2022-12-04T11:32:24.975Z,14.43
2022-12-04T11:34:54.039Z,13.32
2022-12-04T11:37:27.924Z,13.55
2022-12-04T11:39:55.576Z,13.75
2022-12-04T11:42:28.462Z,11.73
2022-12-04T11:45:00.653Z,13.60
2022-12-04T11:47:32.941Z,13.55
2022-12-04T11:50:11.331Z,12.25
2022-12-04T11:52:56.362Z,12.90
2022-12-04T11:55:34.367Z,20.13
2022-12-04T11:58:39.949Z,13.75
2022-12-04T12:01:56.511Z,12.13
2022-12-04T12:04:40.047Z,12.70
2022-12-04T12:07:44.461Z,11.32
2022-12-04T12:13:07.393Z,12.48
2022-12-04T12:15:51.942Z,13.02
2022-12-04T12:18:37.060Z,11.85
2022-12-04T12:21:34.780Z,11.30
2022-12-04T12:24:15.913Z,11.77
2022-12-04T12:26:48.091Z,11.98
2022-12-04T12:29:23.650Z,12.95
2022-12-04T12:32:02.399Z,12.70
2022-12-04T12:34:34.682Z,12.00
2022-12-04T12:37:10.966Z,11.68
2022-12-04T12:39:47.694Z,13.40
2022-12-04T12:42:23.793Z,13.65
2022-12-04T12:45:24.924Z,14.88
2022-12-04T12:47:54.109Z,15.68
2022-12-04T12:50:38.377Z,15.93
2022-12-04T12:53:13.353Z,15.23
2022-12-04T12:55:45.920Z,15.43
2022-12-04T12:58:17.650Z,15.63
2022-12-04T13:00:51.243Z,14.93
2022-12-04T13:03:29.729Z,15.90
2022-12-04T13:06:03.629Z,16.50
2022-12-04T13:08:36.552Z,15.00
2022-12-04T13:11:14.499Z,14.82
2022-12-04T13:13:53.096Z,15.45
2022-12-04T13:16:24.547Z,16.25
2022-12-04T13:19:28.471Z,14.38
2022-12-04T13:22:24.362Z,11.32
2022-12-04T13:25:04.082Z,16.52
2022-12-04T13:28:08.029Z,14.55
2022-12-04T13:30:49.038Z,14.10
2022-12-04T13:33:24.660Z,15.95
2022-12-04T13:35:54.102Z,14.93
2022-12-04T13:38:36.428Z,13.80
2022-12-04T13:41:05.960Z,14.00
2022-12-04T13:43:42.251Z,13.70
2022-12-04T13:46:29.064Z,15.13
2022-12-04T13:49:07.745Z,15.05
2022-12-04T13:51:41.022Z,13.68
2022-12-04T13:54:13.544Z,15.35
2022-12-04T13:56:41.580Z,14.35
2022-12-04T13:59:26.599Z,15.40
2022-12-04T14:02:02.234Z,15.63
2022-12-04T14:04:46.105Z,14.32
2022-12-04T14:07:29.220Z,13.75
2022-12-04T14:09:57.845Z,15.63
2022-12-04T14:12:33.763Z,14.32
2022-12-04T14:15:03.965Z,14.80
2022-12-04T14:17:34.844Z,14.63
2022-12-04T14:20:08.009Z,14.45
2022-12-04T14:25:13.203Z,14.40
2022-12-04T14:27:42.799Z,15.05
2022-12-04T14:30:23.491Z,13.82
2022-12-04T14:32:53.871Z,14.23
2022-12-04T14:35:24.357Z,14.85
2022-12-04T14:38:00.156Z,14.65
2022-12-04T14:40:43.502Z,14.13
2022-12-04T14:43:25.571Z,17.55
2022-12-04T14:46:03.670Z,15.65
2022-12-04T14:49:03.997Z,13.60
2022-12-04T14:51:34.100Z,12.60
2022-12-04T14:54:28.433Z,12.68
2022-12-04T14:57:06.597Z,13.45
2022-12-04T14:59:45.256Z,13.57
2022-12-04T15:02:16.942Z,13.10
2022-12-04T15:04:46.293Z,14.88
2022-12-04T15:07:21.531Z,12.75
2022-12-04T15:10:14.407Z,14.13
2022-12-04T15:12:54.636Z,12.32
2022-12-04T15:15:25.824Z,12.90
2022-12-04T15:18:02.237Z,14.27
2022-12-04T15:20:42.806Z,12.68
2022-12-04T15:23:14.689Z,17.38
2022-12-04T15:25:45.741Z,12.43
2022-12-04T15:28:26.007Z,11.90
2022-12-04T15:30:55.230Z,12.90
2022-12-04T15:33:26.882Z,12.40
2022-12-04T15:35:57.958Z,12.45
2022-12-04T15:38:24.528Z,13.55
2022-12-04T15:40:57.190Z,14.38
2022-12-04T15:43:31.998Z,13.93
2022-12-04T15:45:58.966Z,14.48
2022-12-04T15:48:28.014Z,14.45
2022-12-04T15:51:06.064Z,14.05
2022-12-04T15:53:37.184Z,13.15
2022-12-04T15:56:10.024Z,13.43
2022-12-04T15:58:39.236Z,14.20
2022-12-04T16:01:10.801Z,13.43
2022-12-04T16:03:44.225Z,12.35
2022-12-04T16:06:29.243Z,13.75
2022-12-04T16:09:01.143Z,13.57
2022-12-04T16:11:37.029Z,13.02
2022-12-04T16:14:08.095Z,13.18
2022-12-04T16:16:36.306Z,13.05
2022-12-04T16:19:27.700Z,13.77
2022-12-04T16:21:54.237Z,13.85
2022-12-04T16:24:21.691Z,13.75
2022-12-04T16:26:52.867Z,13.32
2022-12-04T16:29:19.289Z,13.50
2022-12-04T16:31:46.165Z,12.50
2022-12-04T16:34:14.174Z,12.43
2022-12-04T16:36:41.423Z,13.82
2022-12-04T16:39:08.075Z,15.05
2022-12-04T16:41:34.618Z,17.15
2022-12-04T16:44:01.883Z,15.43
2022-12-04T16:46:29.785Z,14.40
2022-12-04T16:48:56.546Z,14.80
2022-12-04T16:51:26.757Z,13.52
2022-12-04T16:53:54.339Z,13.05
2022-12-04T16:56:21.616Z,14.68
2022-12-04T16:58:48.336Z,13.45
2022-12-04T17:01:22.524Z,13.65
2022-12-04T17:03:49.696Z,14.27
2022-12-04T17:06:16.806Z,13.23
2022-12-04T17:08:43.448Z,14.27
2022-12-04T17:11:15.124Z,14.10
2022-12-04T17:13:42.199Z,13.48
2022-12-04T17:16:11.964Z,14.23
2022-12-04T17:18:40.642Z,13.73
2022-12-04T17:21:08.930Z,12.73
2022-12-04T17:23:35.600Z,11.48
2022-12-04T17:26:04.184Z,12.30
2022-12-04T17:28:31.446Z,11.95
2022-12-04T17:30:58.494Z,12.50
2022-12-04T17:33:25.969Z,12.48
2022-12-04T17:35:54.094Z,10.65
2022-12-04T17:38:20.735Z,11.15
2022-12-04T17:41:01.046Z,11.63
2022-12-04T17:43:32.449Z,12.50
2022-12-04T17:45:59.589Z,13.80
2022-12-04T17:48:27.465Z,12.82
2022-12-04T17:51:21.336Z,13.85
2022-12-04T17:53:48.264Z,12.80
2022-12-04T17:56:17.949Z,14.23
2022-12-04T17:58:45.156Z,14.20
2022-12-04T18:01:16.200Z,13.68
2022-12-04T18:03:43.874Z,14.50
2022-12-04T18:06:18.596Z,14.07
2022-12-04T18:08:49.781Z,15.40
2022-12-04T18:11:18.650Z,14.10
2022-12-04T18:13:45.045Z,14.32
2022-12-04T18:16:11.735Z,14.57
2022-12-04T18:18:38.894Z,13.52
2022-12-04T18:21:07.818Z,14.32
2022-12-04T18:23:34.340Z,13.48
2022-12-04T18:26:01.147Z,14.73
2022-12-04T18:28:30.761Z,14.02
2022-12-04T18:31:05.475Z,14.73
2022-12-04T18:33:34.342Z,14.10
2022-12-04T18:36:01.529Z,15.38
2022-12-04T18:38:30.590Z,15.52
2022-12-04T18:41:02.841Z,14.93
2022-12-04T18:43:29.588Z,13.88
2022-12-04T18:46:06.831Z,15.27
2022-12-04T18:48:34.722Z,15.65
2022-12-04T18:51:01.174Z,15.75
2022-12-04T18:53:27.648Z,17.88
2022-12-04T18:55:54.433Z,16.90
2022-12-04T18:58:22.894Z,16.60
2022-12-04T19:00:49.611Z,15.95
2022-12-04T19:03:16.137Z,16.05
2022-12-04T19:05:50.096Z,16.77
2022-12-04T19:08:17.718Z,17.20
2022-12-04T19:10:44.252Z,16.65
2022-12-04T19:13:10.662Z,16.75
2022-12-04T19:15:42.993Z,17.80
2022-12-04T19:18:09.483Z,15.32
2022-12-04T19:20:39.968Z,15.77
2022-12-04T19:23:06.394Z,17.27
2022-12-04T19:25:32.785Z,15.85
2022-12-04T19:27:59.992Z,16.48
2022-12-04T19:30:26.523Z,16.42
2022-12-04T19:32:52.970Z,15.57
2022-12-04T19:35:19.416Z,17.38
2022-12-04T19:37:51.131Z,17.35
2022-12-04T19:40:19.225Z,16.55
2022-12-04T19:42:45.701Z,19.92
2022-12-04T19:45:12.254Z,16.90
2022-12-04T19:47:38.750Z,17.05
2022-12-04T19:50:05.762Z,16.50
2022-12-04T19:52:33.556Z,17.30
2022-12-04T19:55:00.018Z,17.88
2022-12-04T19:57:26.508Z,16.75
2022-12-04T19:59:52.959Z,16.55
2022-12-04T20:02:19.790Z,15.48
2022-12-04T20:04:46.376Z,16.92
2022-12-04T20:07:13.046Z,16.50
2022-12-04T20:09:40.040Z,14.93
2022-12-04T20:12:06.769Z,16.15
2022-12-04T20:14:33.305Z,16.30
2022-12-04T20:17:01.621Z,14.73
2022-12-04T20:19:28.590Z,16.85
2022-12-04T20:21:59.325Z,14.75
2022-12-04T20:24:26.488Z,15.35
2022-12-04T20:26:52.926Z,16.40
2022-12-04T20:29:19.464Z,14.95
2022-12-04T20:31:46.681Z,15.27
2022-12-04T20:34:15.744Z,15.65
2022-12-04T20:36:44.555Z,16.58
2022-12-04T20:39:13.013Z,15.73
2022-12-04T20:41:40.409Z,20.38
2022-12-04T20:44:09.514Z,17.88
2022-12-04T20:46:38.178Z,15.63
2022-12-04T20:49:07.706Z,15.15
2022-12-04T20:51:42.068Z,15.10
2022-12-04T20:54:10.957Z,14.93
2022-12-04T20:56:38.427Z,15.50
2022-12-04T20:59:10.727Z,16.38
2022-12-04T21:01:37.585Z,14.70
2022-12-04T21:04:04.497Z,14.50
2022-12-04T21:06:37.655Z,15.82
2022-12-04T21:09:06.235Z,15.80
2022-12-04T21:11:39.271Z,14.93
2022-12-04T21:14:30.606Z,14.32
2022-12-04T21:16:57.462Z,15.38
2022-12-04T21:19:24.107Z,14.68
2022-12-04T21:21:50.855Z,13.45
2022-12-04T21:24:19.821Z,14.00
2022-12-04T21:26:47.115Z,13.80
2022-12-04T21:29:14.997Z,12.75
2022-12-04T21:31:41.644Z,11.15
2022-12-04T21:34:11.560Z,12.27
2022-12-04T21:36:38.037Z,11.57
2022-12-04T21:39:04.752Z,11.43
2022-12-04T21:41:49.547Z,11.27
2022-12-04T21:44:18.366Z,11.77
2022-12-04T21:46:46.188Z,11.85
2022-12-04T21:49:13.732Z,11.50
2022-12-04T21:51:56.847Z,11.80
2022-12-04T21:54:24.394Z,11.32
2022-12-04T21:56:50.810Z,10.38
2022-12-04T21:59:17.244Z,10.35
2022-12-04T22:01:43.772Z,10.27
2022-12-04T22:04:10.393Z,12.80
2022-12-04T22:06:37.914Z,9.88
2022-12-04T22:09:07.894Z,10.77
2022-12-04T22:11:34.890Z,10.38
2022-12-04T22:14:01.420Z,13.27
2022-12-04T22:16:30.680Z,11.15
2022-12-04T22:18:58.777Z,9.57
2022-12-04T22:21:26.369Z,10.63
2022-12-04T22:23:57.132Z,10.35
2022-12-04T22:26:24.319Z,9.95
2022-12-04T22:28:50.890Z,9.48
2022-12-04T22:31:20.588Z,9.65
2022-12-04T22:33:48.699Z,9.98
2022-12-04T22:36:18.630Z,10.13
2022-12-04T22:39:08.328Z,10.23
2022-12-04T22:41:32.123Z,10.15
2022-12-04T22:43:58.571Z,9.45
2022-12-04T22:46:25.079Z,9.00
2022-12-04T22:48:51.746Z,9.65
2022-12-04T22:51:21.149Z,9.07
2022-12-04T22:53:53.150Z,10.05
2022-12-04T22:56:28.497Z,10.05
2022-12-04T22:58:55.789Z,10.00
2022-12-04T23:01:26.163Z,9.00
2022-12-04T23:03:53.646Z,9.57
2022-12-04T23:06:21.614Z,9.13
2022-12-04T23:08:48.460Z,9.63
2022-12-04T23:11:20.233Z,8.70
2022-12-04T23:13:54.711Z,9.95
2022-12-04T23:16:22.595Z,9.10
2022-12-04T23:18:49.708Z,9.35
2022-12-04T23:21:17.440Z,9.20
2022-12-04T23:23:45.507Z,9.18
2022-12-04T23:26:15.094Z,10.05
2022-12-04T23:28:42.008Z,9.57
2022-12-04T23:31:08.937Z,9.55
2022-12-04T23:33:35.437Z,9.95
2022-12-04T23:36:03.687Z,10.25
2022-12-04T23:38:30.122Z,9.73
2022-12-04T23:41:16.378Z,10.52
2022-12-04T23:43:43.839Z,9.82
2022-12-04T23:46:12.675Z,11.18
2022-12-04T23:48:40.486Z,11.80
2022-12-04T23:51:07.987Z,11.30
2022-12-04T23:53:34.971Z,11.80
2022-12-04T23:56:15.140Z,11.15
2022-12-04T23:58:43.261Z,11.32
